Angisoq

KL  EN  DA
ASIAQ
Weather Now GREENLAND SURVEY
Updated [WGT/WGST] Temperature [°C] Wind [m/s] Air pressure [hPa] Relative humidity [%] Precipitation [mm]
Present Wind chill Speed Max
18.04 01:00-3,8-13,715,4 ⇘19,0101357n/a
18.04 00:00-3,6-13,314,9 ⇘18,0101358n/a
17.04 23:00-3,4-13,115,4 ⇘18,5101259n/a
17.04 22:00-3,4-13,416,5 ⇘20,6101257n/a
17.04 21:00-3,5-13,416,0 ⇘21,1101257n/a
17.04 20:00-3,4-13,617,5 ⇘21,6101158n/a
17.04 19:00-3,2-12,915,4 ⇘20,1101159n/a
17.04 18:00-3,3-13,316,5 ⇘21,6101058n/a
17.04 17:00-2,9-13,017,5 ⇘21,1101057n/a
17.04 16:00-3,2-13,618,5 ⇘23,2100952n/a
17.04 15:00-3,3-13,819,0 ⇘23,2100954n/a
17.04 14:00-3,7-14,720,6 ⇘25,7100851n/a
17.04 13:00-3,9-14,920,1 ⇘25,2100850n/a
17.04 12:00-4,1-15,521,6 ⇘26,3100753n/a
17.04 11:00-4,2-15,219,6 ⇘24,2100750n/a
17.04 10:00-4,2-15,219,6 ⇘23,7100757n/a
17.04 09:00-4,6-16,020,6 ⇘26,3100754n/a
17.04 08:00-4,7-16,020,1 ⇘25,2100655n/a
17.04 07:00-5,1-16,620,1 ⇘26,8100553n/a
17.04 06:00-5,4-17,522,7 ⇘28,3100554n/a
17.04 05:00-5,3-17,121,1 ⇘26,3100457n/a
17.04 04:00-5,3-17,221,6 ⇘27,8100355n/a
17.04 03:00-5,4-17,221,1 ⇘27,3100357n/a
17.04 02:00-5,3-17,322,1 ⇘29,3100256n/a
17.04 01:00-5,3-17,121,1 ⇘25,7100260n/a
Position: (59.9911111111,-45.14611111)

[Back]